createdAt,value
2024-03-16T00:01:22.438Z,3.91
2024-03-16T00:03:50.275Z,3.80
2024-03-16T00:10:22.656Z,3.54
2024-03-16T00:12:49.911Z,3.09
2024-03-16T00:15:17.137Z,3.19
2024-03-16T00:17:44.364Z,3.25
2024-03-16T00:20:12.925Z,3.38
2024-03-16T00:22:40.820Z,3.60
2024-03-16T00:25:07.964Z,3.81
2024-03-16T00:27:34.891Z,4.52
2024-03-16T00:30:02.922Z,3.80
2024-03-16T00:32:29.840Z,4.06
2024-03-16T00:34:56.977Z,3.90
2024-03-16T00:37:24.483Z,3.06
2024-03-16T00:39:52.602Z,2.69
2024-03-16T00:46:06.516Z,2.63
2024-03-16T00:48:33.393Z,2.95
2024-03-16T00:51:00.410Z,3.13
2024-03-16T00:53:28.241Z,2.87
2024-03-16T00:55:56.269Z,2.75
2024-03-16T00:58:23.931Z,2.55
2024-03-16T01:00:50.837Z,2.76
2024-03-16T01:03:18.925Z,2.68
2024-03-16T01:05:51.907Z,2.62
2024-03-16T01:08:18.789Z,2.45
2024-03-16T01:10:45.681Z,2.54
2024-03-16T01:13:12.837Z,2.30
2024-03-16T01:15:39.791Z,2.45
2024-03-16T01:18:06.620Z,2.29
2024-03-16T01:20:56.805Z,2.34
2024-03-16T01:23:24.181Z,2.35
2024-03-16T01:25:52.595Z,2.31
2024-03-16T01:28:21.127Z,2.40
2024-03-16T01:30:48.121Z,2.20
2024-03-16T01:33:16.430Z,1.83
2024-03-16T01:35:43.355Z,1.79
2024-03-16T01:38:10.305Z,1.93
2024-03-16T01:40:37.341Z,1.98
2024-03-16T01:43:05.286Z,2.02
2024-03-16T01:45:34.718Z,2.15
2024-03-16T01:48:02.540Z,2.10
2024-03-16T01:50:30.148Z,2.12
2024-03-16T01:52:56.973Z,2.18
2024-03-16T01:55:23.896Z,2.24
2024-03-16T01:57:52.130Z,2.24
2024-03-16T02:00:18.957Z,2.30
2024-03-16T02:02:47.215Z,2.03
2024-03-16T02:05:13.989Z,1.98
2024-03-16T02:07:41.379Z,2.10
2024-03-16T02:10:09.475Z,2.11
2024-03-16T02:12:36.637Z,2.06
2024-03-16T02:18:29.474Z,2.07
2024-03-16T02:20:57.034Z,2.06
2024-03-16T02:23:24.127Z,2.21
2024-03-16T02:25:51.450Z,1.93
2024-03-16T02:28:18.573Z,1.99
2024-03-16T02:30:46.031Z,2.35
2024-03-16T02:33:12.845Z,2.33
2024-03-16T02:35:40.130Z,2.25
2024-03-16T02:38:06.963Z,2.47
2024-03-16T02:40:33.756Z,2.13
2024-03-16T02:43:00.892Z,2.30
2024-03-16T02:45:27.713Z,2.15
2024-03-16T02:47:54.860Z,2.23
2024-03-16T02:50:23.194Z,1.92
2024-03-16T02:52:50.047Z,1.93
2024-03-16T02:55:16.851Z,1.83
2024-03-16T02:57:44.238Z,1.61
2024-03-16T03:00:11.620Z,1.64
2024-03-16T03:02:39.914Z,1.69
2024-03-16T03:05:06.826Z,1.81
2024-03-16T03:07:34.089Z,1.58
2024-03-16T03:10:01.023Z,1.33
2024-03-16T03:12:28.028Z,1.41
2024-03-16T03:14:55.240Z,1.42
2024-03-16T03:17:22.505Z,1.58
2024-03-16T03:19:49.346Z,1.49
2024-03-16T03:22:16.624Z,1.46
2024-03-16T03:24:54.551Z,1.66
2024-03-16T03:27:21.295Z,1.63
2024-03-16T03:29:48.260Z,1.58
2024-03-16T03:32:17.857Z,1.62
2024-03-16T03:34:44.723Z,1.93
2024-03-16T03:37:11.662Z,2.00
2024-03-16T03:39:38.853Z,1.96
2024-03-16T03:42:05.747Z,1.98
2024-03-16T03:44:32.552Z,1.92
2024-03-16T03:46:59.362Z,1.91
2024-03-16T03:49:26.220Z,1.77
2024-03-16T03:51:55.286Z,1.56
2024-03-16T03:54:22.681Z,1.79
2024-03-16T03:56:49.496Z,1.89
2024-03-16T03:59:16.384Z,2.00
2024-03-16T04:01:43.595Z,1.79
2024-03-16T04:04:10.954Z,1.85
2024-03-16T04:06:38.479Z,2.01
2024-03-16T04:09:08.075Z,1.77
2024-03-16T04:11:34.915Z,1.96
2024-03-16T04:14:15.474Z,1.77
2024-03-16T04:16:48.010Z,1.66
2024-03-16T04:19:32.221Z,1.59
2024-03-16T04:21:59.079Z,1.49
2024-03-16T04:24:26.483Z,1.49
2024-03-16T04:26:54.004Z,1.33
2024-03-16T04:29:20.744Z,1.58
2024-03-16T04:31:47.591Z,1.75
2024-03-16T04:34:16.028Z,2.04
2024-03-16T04:36:42.965Z,2.09
2024-03-16T04:39:09.743Z,1.69
2024-03-16T04:41:37.468Z,1.44
2024-03-16T04:44:04.345Z,1.30
2024-03-16T04:46:32.355Z,1.08
2024-03-16T04:48:59.378Z,0.96
2024-03-16T04:51:26.381Z,1.11
2024-03-16T04:53:54.352Z,1.16
2024-03-16T04:56:21.605Z,1.03
2024-03-16T04:58:49.420Z,1.17
2024-03-16T05:01:17.190Z,1.00
2024-03-16T05:03:44.070Z,1.11
2024-03-16T05:06:10.864Z,0.94
2024-03-16T05:12:31.390Z,1.08
2024-03-16T05:14:58.266Z,1.03
2024-03-16T05:17:25.454Z,1.04
2024-03-16T05:19:52.693Z,1.13
2024-03-16T05:22:19.925Z,1.04
2024-03-16T05:24:47.816Z,1.10
2024-03-16T05:27:15.922Z,1.28
2024-03-16T05:29:42.720Z,1.07
2024-03-16T05:32:12.241Z,1.24
2024-03-16T05:34:41.949Z,0.99
2024-03-16T05:37:09.912Z,1.11
2024-03-16T05:39:36.791Z,1.03
2024-03-16T05:42:04.243Z,0.97
2024-03-16T05:44:32.108Z,1.08
2024-03-16T05:47:00.215Z,1.01
2024-03-16T05:49:28.134Z,1.10
2024-03-16T05:51:56.562Z,1.13
2024-03-16T05:54:25.203Z,1.18
2024-03-16T05:56:52.035Z,1.29
2024-03-16T05:59:19.208Z,1.31
2024-03-16T06:01:46.152Z,1.37
2024-03-16T06:04:15.819Z,1.38
2024-03-16T06:06:42.721Z,1.26
2024-03-16T06:09:10.017Z,1.30
2024-03-16T06:11:36.914Z,1.37
2024-03-16T06:14:05.098Z,1.63
2024-03-16T06:16:31.869Z,1.44
2024-03-16T06:19:00.062Z,1.42
2024-03-16T06:21:27.212Z,1.21
2024-03-16T06:23:54.688Z,1.14
2024-03-16T06:26:21.822Z,1.10
2024-03-16T06:28:50.153Z,1.43
2024-03-16T06:31:18.078Z,1.22
2024-03-16T06:33:44.990Z,1.02
2024-03-16T06:36:12.747Z,1.05
2024-03-16T06:38:40.613Z,1.09
2024-03-16T06:41:07.772Z,1.17
2024-03-16T06:43:34.524Z,1.02
2024-03-16T06:46:04.332Z,1.12
2024-03-16T06:48:31.200Z,0.98
2024-03-16T06:50:58.034Z,1.16
2024-03-16T06:53:25.127Z,1.39
2024-03-16T06:55:52.283Z,1.57
2024-03-16T06:58:25.022Z,1.55
2024-03-16T07:00:51.898Z,1.40
2024-03-16T07:03:19.221Z,4.08
2024-03-16T07:05:45.968Z,2.48
2024-03-16T07:08:12.784Z,1.29
2024-03-16T07:10:40.920Z,1.20
2024-03-16T07:13:08.252Z,1.53
2024-03-16T07:15:35.187Z,1.72
2024-03-16T07:18:02.876Z,1.39
2024-03-16T07:20:29.696Z,0.71
2024-03-16T07:22:56.570Z,1.20
2024-03-16T07:25:23.861Z,1.28
2024-03-16T07:27:50.954Z,1.28
2024-03-16T07:30:18.160Z,0.84
2024-03-16T07:32:44.933Z,0.73
2024-03-16T07:35:14.815Z,0.70
2024-03-16T07:37:41.899Z,0.85
2024-03-16T07:40:13.833Z,0.76
2024-03-16T07:42:41.724Z,0.77
2024-03-16T07:45:11.579Z,0.86
2024-03-16T07:47:38.500Z,0.75
2024-03-16T07:50:06.360Z,0.82
2024-03-16T07:52:33.743Z,0.76
2024-03-16T07:55:00.686Z,0.76
2024-03-16T07:57:27.931Z,0.74
2024-03-16T08:03:22.466Z,0.69
2024-03-16T08:05:52.952Z,0.87
2024-03-16T08:12:25.681Z,0.97
2024-03-16T08:14:52.917Z,1.05
2024-03-16T08:17:21.185Z,0.89
2024-03-16T08:19:48.200Z,1.06
2024-03-16T08:22:16.889Z,1.12
2024-03-16T08:24:43.703Z,1.14
2024-03-16T08:27:11.508Z,1.25
2024-03-16T08:29:38.438Z,1.17
2024-03-16T08:32:05.240Z,1.30
2024-03-16T08:34:32.205Z,1.18
2024-03-16T08:37:01.941Z,1.17
2024-03-16T08:39:28.803Z,1.14
2024-03-16T08:41:57.285Z,1.16
2024-03-16T08:44:24.115Z,1.17
2024-03-16T08:46:51.254Z,1.22
2024-03-16T08:49:18.815Z,1.08
2024-03-16T08:51:48.274Z,1.26
2024-03-16T08:54:15.751Z,1.22
2024-03-16T08:56:43.314Z,1.36
2024-03-16T08:59:10.452Z,1.20
2024-03-16T09:01:40.243Z,1.13
2024-03-16T09:04:07.367Z,1.32
2024-03-16T09:06:34.207Z,1.17
2024-03-16T09:09:04.518Z,1.34
2024-03-16T09:11:32.766Z,1.37
2024-03-16T09:14:02.308Z,1.26
2024-03-16T09:16:29.252Z,1.49
2024-03-16T09:18:58.946Z,1.37
2024-03-16T09:21:25.688Z,1.32
2024-03-16T09:24:32.183Z,1.17
2024-03-16T09:26:59.011Z,1.20
2024-03-16T09:29:25.751Z,1.17
2024-03-16T09:31:55.272Z,1.22
2024-03-16T09:34:22.179Z,1.11
2024-03-16T09:36:49.449Z,0.96
2024-03-16T09:39:16.225Z,1.12
2024-03-16T09:41:44.396Z,1.39
